createdAt,value
2022-11-02T00:01:41.646Z,12.80
2022-11-02T00:04:08.545Z,12.80
2022-11-02T00:06:35.233Z,12.80
2022-11-02T00:09:02.180Z,12.70
2022-11-02T00:11:28.905Z,12.70
2022-11-02T00:13:55.614Z,12.70
2022-11-02T00:16:22.954Z,12.60
2022-11-02T00:18:52.612Z,12.60
2022-11-02T00:21:21.733Z,12.60
2022-11-02T00:23:49.372Z,12.60
2022-11-02T00:26:16.791Z,12.50
2022-11-02T00:28:43.604Z,12.50
2022-11-02T00:31:10.358Z,12.50
2022-11-02T00:33:37.034Z,12.50
2022-11-02T00:36:03.868Z,12.40
2022-11-02T00:38:32.107Z,12.40
2022-11-02T00:40:59.677Z,12.50
2022-11-02T00:43:26.441Z,12.40
2022-11-02T00:45:53.167Z,12.40
2022-11-02T00:48:19.933Z,12.40
2022-11-02T00:50:46.620Z,12.30
2022-11-02T00:53:13.390Z,12.40
2022-11-02T00:55:40.098Z,12.40
2022-11-02T00:58:06.994Z,12.40
2022-11-02T01:00:33.916Z,12.40
2022-11-02T01:03:01.730Z,12.40
2022-11-02T01:05:29.078Z,12.40
2022-11-02T01:07:57.063Z,12.40
2022-11-02T01:10:26.125Z,12.30
2022-11-02T01:12:52.882Z,12.30
2022-11-02T01:15:19.587Z,12.30
2022-11-02T01:17:46.555Z,12.30
2022-11-02T01:20:13.460Z,12.20
2022-11-02T01:22:40.531Z,12.20
2022-11-02T01:25:08.011Z,12.20
2022-11-02T01:27:34.845Z,12.20
2022-11-02T01:30:02.249Z,12.20
2022-11-02T01:32:30.637Z,12.20
2022-11-02T01:34:57.513Z,12.20
2022-11-02T01:37:26.055Z,12.20
2022-11-02T01:39:52.831Z,12.10
2022-11-02T01:42:21.863Z,12.10
2022-11-02T01:44:48.826Z,12.10
2022-11-02T01:47:22.822Z,12.10
2022-11-02T01:49:53.552Z,12.10
2022-11-02T01:52:26.224Z,12.10
2022-11-02T01:54:56.402Z,12.10
2022-11-02T01:57:23.147Z,12.10
2022-11-02T01:59:55.647Z,12.00
2022-11-02T02:02:24.879Z,12.00
2022-11-02T02:04:54.800Z,12.00
2022-11-02T02:07:24.210Z,12.00
2022-11-02T02:09:51.671Z,12.00
2022-11-02T02:12:18.654Z,12.00
2022-11-02T02:14:45.492Z,12.00
2022-11-02T02:17:45.706Z,12.00
2022-11-02T02:20:27.629Z,11.90
2022-11-02T02:23:19.345Z,11.90
2022-11-02T02:25:55.243Z,11.90
2022-11-02T02:28:34.552Z,11.90
2022-11-02T02:31:12.923Z,11.90
2022-11-02T02:33:48.751Z,11.90
2022-11-02T02:36:31.846Z,11.80
2022-11-02T02:39:03.543Z,11.90
2022-11-02T02:41:34.112Z,11.90
2022-11-02T02:44:03.210Z,11.90
2022-11-02T02:46:56.834Z,11.90
2022-11-02T02:49:38.638Z,12.00
2022-11-02T02:52:05.961Z,12.00
2022-11-02T02:54:36.520Z,11.90
2022-11-02T02:57:09.598Z,11.90
2022-11-02T02:59:44.850Z,11.90
2022-11-02T03:02:40.245Z,11.90
2022-11-02T03:05:24.498Z,11.90
2022-11-02T03:07:51.291Z,11.90
2022-11-02T03:10:24.336Z,11.90
2022-11-02T03:13:00.768Z,11.90
2022-11-02T03:15:50.362Z,11.80
2022-11-02T03:18:28.062Z,11.90
2022-11-02T03:21:12.996Z,11.90
2022-11-02T03:23:45.825Z,11.90
2022-11-02T03:26:22.681Z,11.90
2022-11-02T03:29:08.485Z,11.80
2022-11-02T03:32:11.933Z,11.90
2022-11-02T03:34:39.604Z,11.80
2022-11-02T03:37:14.132Z,11.80
2022-11-02T03:40:08.115Z,11.80
2022-11-02T03:42:35.320Z,11.80
2022-11-02T03:45:15.109Z,11.80
2022-11-02T03:47:46.451Z,11.80
2022-11-02T03:50:15.296Z,11.70
2022-11-02T03:52:45.064Z,11.70
2022-11-02T03:55:15.339Z,11.70
2022-11-02T03:57:45.744Z,11.70
2022-11-02T04:00:18.493Z,11.60
2022-11-02T04:02:49.154Z,11.60
2022-11-02T04:05:16.275Z,11.60
2022-11-02T04:08:04.414Z,11.50
2022-11-02T04:10:31.396Z,11.50
2022-11-02T04:13:17.078Z,11.50
2022-11-02T04:15:43.812Z,11.50
2022-11-02T04:18:29.138Z,11.40
2022-11-02T04:20:55.879Z,11.40
2022-11-02T04:23:41.200Z,11.40
2022-11-02T04:26:07.889Z,11.40
2022-11-02T04:28:34.576Z,11.40
2022-11-02T04:31:01.314Z,11.30
2022-11-02T04:33:34.491Z,11.40
2022-11-02T04:36:02.807Z,11.30
2022-11-02T04:38:42.110Z,11.30
2022-11-02T04:41:35.715Z,11.20
2022-11-02T04:44:02.760Z,11.30
2022-11-02T04:46:30.859Z,11.20
2022-11-02T04:48:57.776Z,11.20
2022-11-02T04:51:27.227Z,11.20
2022-11-02T04:53:54.924Z,11.20
2022-11-02T04:56:21.879Z,11.20
2022-11-02T04:58:53.090Z,11.10
2022-11-02T05:01:20.446Z,11.10
2022-11-02T05:03:51.051Z,11.10
2022-11-02T05:06:19.161Z,11.10
2022-11-02T05:08:46.301Z,11.00
2022-11-02T05:11:13.580Z,11.00
2022-11-02T05:13:41.444Z,11.00
2022-11-02T05:16:11.998Z,11.00
2022-11-02T05:18:38.745Z,10.90
2022-11-02T05:21:05.691Z,11.00
2022-11-02T05:23:32.473Z,10.90
2022-11-02T05:26:01.575Z,10.90
2022-11-02T05:28:29.120Z,10.90
2022-11-02T05:30:58.745Z,10.80
2022-11-02T05:33:30.224Z,10.80
2022-11-02T05:35:58.275Z,10.80
2022-11-02T05:38:25.785Z,10.80
2022-11-02T05:40:54.218Z,10.80
2022-11-02T05:43:21.196Z,10.80
2022-11-02T05:45:55.193Z,10.70
2022-11-02T05:48:23.050Z,10.70
2022-11-02T05:50:49.990Z,10.70
2022-11-02T05:53:16.719Z,10.70
2022-11-02T05:55:43.485Z,10.60
2022-11-02T05:58:10.220Z,10.60
2022-11-02T06:00:36.912Z,10.60
2022-11-02T06:03:04.043Z,10.50
2022-11-02T06:05:31.119Z,10.50
2022-11-02T06:08:01.767Z,10.50
2022-11-02T06:10:29.958Z,10.50
2022-11-02T06:12:57.857Z,10.50
2022-11-02T06:15:24.663Z,10.40
2022-11-02T06:17:54.311Z,10.40
2022-11-02T06:20:21.031Z,10.40
2022-11-02T06:22:47.998Z,10.40
2022-11-02T06:25:15.544Z,10.40
2022-11-02T06:27:45.836Z,10.40
2022-11-02T06:30:12.997Z,10.30
2022-11-02T06:32:40.928Z,10.30
2022-11-02T06:35:08.297Z,10.30
2022-11-02T06:37:35.491Z,10.30
2022-11-02T06:40:02.237Z,10.30
2022-11-02T06:42:29.136Z,10.30
2022-11-02T06:45:02.478Z,10.30
2022-11-02T06:47:31.532Z,10.30
2022-11-02T06:49:59.165Z,10.30
2022-11-02T06:52:29.412Z,10.20
2022-11-02T06:54:56.525Z,10.20
2022-11-02T06:57:23.325Z,10.20
2022-11-02T06:59:53.812Z,10.20
2022-11-02T07:02:22.088Z,10.20
2022-11-02T07:04:50.494Z,10.20
2022-11-02T07:07:17.293Z,10.20
2022-11-02T07:09:44.248Z,10.20
2022-11-02T07:12:12.893Z,10.10
2022-11-02T07:14:39.585Z,10.10
2022-11-02T07:17:06.309Z,10.10
2022-11-02T07:19:33.035Z,10.20
2022-11-02T07:21:59.773Z,10.20
2022-11-02T07:24:26.454Z,10.10
2022-11-02T07:26:55.776Z,10.20
2022-11-02T07:29:22.649Z,10.10
2022-11-02T07:31:50.018Z,10.20
2022-11-02T07:34:17.332Z,10.10
2022-11-02T07:36:44.267Z,10.10
2022-11-02T07:39:10.963Z,10.10
2022-11-02T07:41:37.687Z,10.10
2022-11-02T07:44:04.597Z,10.20
2022-11-02T07:46:31.401Z,10.20
2022-11-02T07:48:58.212Z,10.20
2022-11-02T07:51:25.077Z,10.20
2022-11-02T07:53:51.880Z,10.20
2022-11-02T07:56:18.601Z,10.20
2022-11-02T07:58:45.919Z,10.20
2022-11-02T08:01:12.818Z,10.30
2022-11-02T08:03:39.586Z,10.30
2022-11-02T08:06:07.224Z,10.30
2022-11-02T08:08:33.960Z,10.30
2022-11-02T08:11:08.985Z,10.30
2022-11-02T08:13:37.409Z,10.30
2022-11-02T08:16:04.369Z,10.40
2022-11-02T08:18:31.269Z,10.40
2022-11-02T08:20:59.043Z,10.40
2022-11-02T08:23:26.740Z,10.40
2022-11-02T08:25:54.877Z,10.40
2022-11-02T08:28:24.327Z,10.50
2022-11-02T08:30:51.657Z,10.50
2022-11-02T08:33:19.740Z,10.50
2022-11-02T08:35:47.397Z,10.50
2022-11-02T08:38:14.893Z,10.60
2022-11-02T08:40:41.979Z,10.50
2022-11-02T08:43:13.257Z,10.60
2022-11-02T08:48:27.971Z,10.70
2022-11-02T08:50:56.099Z,10.70
2022-11-02T08:53:23.055Z,10.70
2022-11-02T08:55:49.932Z,10.80
2022-11-02T08:58:16.692Z,10.80
2022-11-02T09:00:43.884Z,10.90
2022-11-02T09:03:12.661Z,10.90
2022-11-02T09:05:44.402Z,10.90
2022-11-02T09:08:19.294Z,11.00
2022-11-02T09:10:49.598Z,11.00
2022-11-02T09:13:20.710Z,11.10
2022-11-02T09:15:50.249Z,11.00
2022-11-02T09:18:17.036Z,11.00
2022-11-02T09:20:43.813Z,11.10
2022-11-02T09:23:10.636Z,11.10
2022-11-02T09:25:37.668Z,11.10
2022-11-02T09:28:04.455Z,11.30
2022-11-02T09:30:31.222Z,11.30
2022-11-02T09:32:59.818Z,11.30
2022-11-02T09:35:28.717Z,11.30
2022-11-02T09:37:55.567Z,11.40
2022-11-02T09:40:24.659Z,11.40
2022-11-02T09:43:13.308Z,11.50
2022-11-02T09:46:06.249Z,11.50
2022-11-02T09:48:33.202Z,11.60
2022-11-02T09:51:05.921Z,11.60
2022-11-02T09:53:42.392Z,11.70
2022-11-02T09:56:10.751Z,11.70
2022-11-02T09:58:39.388Z,11.80
2022-11-02T10:01:14.479Z,11.90
2022-11-02T10:03:58.166Z,11.90
2022-11-02T10:06:25.652Z,11.90
2022-11-02T10:09:13.262Z,12.00
2022-11-02T10:12:13.337Z,12.00
2022-11-02T10:15:05.052Z,12.00
2022-11-02T10:17:35.052Z,12.10
2022-11-02T10:20:07.521Z,12.20
2022-11-02T10:22:38.063Z,12.20
2022-11-02T10:25:06.315Z,12.20
2022-11-02T10:27:38.558Z,12.30
2022-11-02T10:30:07.003Z,12.40
2022-11-02T10:32:36.644Z,12.40
2022-11-02T10:38:12.030Z,12.50
2022-11-02T10:40:41.286Z,12.50
2022-11-02T10:43:26.319Z,12.60
2022-11-02T10:46:14.225Z,12.70
2022-11-02T10:49:12.090Z,12.70
2022-11-02T10:51:39.010Z,12.60
2022-11-02T10:54:12.449Z,12.60
2022-11-02T10:56:40.289Z,12.70
2022-11-02T10:59:14.335Z,12.80
2022-11-02T11:02:04.754Z,12.90
2022-11-02T11:04:32.945Z,13.00
2022-11-02T11:07:06.490Z,13.00
2022-11-02T11:09:42.900Z,13.00
2022-11-02T11:12:21.140Z,13.00
2022-11-02T11:20:38.483Z,13.20
2022-11-02T11:23:10.053Z,13.30
2022-11-02T11:25:36.842Z,13.30
2022-11-02T11:28:21.780Z,13.40
2022-11-02T11:31:01.981Z,13.50
2022-11-02T11:33:29.789Z,13.50
2022-11-02T11:35:56.631Z,13.60
2022-11-02T11:38:26.126Z,13.70
2022-11-02T11:40:55.639Z,13.80
2022-11-02T11:43:24.993Z,13.80
2022-11-02T11:45:58.165Z,13.90
2022-11-02T11:48:40.278Z,14.00
2022-11-02T11:51:26.612Z,14.10
2022-11-02T11:54:20.059Z,14.20
2022-11-02T11:56:48.076Z,14.20
2022-11-02T11:59:21.092Z,14.30
2022-11-02T12:01:48.337Z,14.30
2022-11-02T12:04:27.487Z,14.40
2022-11-02T12:07:12.948Z,14.60
2022-11-02T12:10:01.175Z,14.60
2022-11-02T12:12:39.460Z,14.60
2022-11-02T12:15:35.311Z,14.70
2022-11-02T12:18:14.209Z,14.70
2022-11-02T12:21:18.028Z,14.80
2022-11-02T12:24:21.949Z,14.90
2022-11-02T12:27:16.374Z,15.00
2022-11-02T12:30:12.743Z,15.20
2022-11-02T12:32:59.079Z,15.30
2022-11-02T12:35:50.101Z,15.50
2022-11-02T12:38:38.108Z,15.50
2022-11-02T12:41:08.293Z,15.40
2022-11-02T12:43:57.127Z,15.50
2022-11-02T12:46:23.822Z,15.70
2022-11-02T12:49:15.345Z,15.90
2022-11-02T12:51:58.630Z,16.00
2022-11-02T12:54:30.512Z,16.00
2022-11-02T12:56:57.431Z,16.00
2022-11-02T12:59:27.357Z,16.10
2022-11-02T13:02:21.536Z,16.10
2022-11-02T13:05:08.317Z,16.20
2022-11-02T13:07:39.646Z,16.30
2022-11-02T13:10:20.572Z,16.30
2022-11-02T13:12:50.181Z,16.50
2022-11-02T13:15:20.051Z,16.80
2022-11-02T13:17:53.722Z,16.90
2022-11-02T13:20:24.438Z,16.90
2022-11-02T13:22:56.826Z,17.00
2022-11-02T13:25:28.688Z,17.00
2022-11-02T13:28:02.759Z,17.00
2022-11-02T13:30:33.073Z,17.10
2022-11-02T13:33:05.883Z,17.10
2022-11-02T13:35:40.863Z,17.20
2022-11-02T13:38:35.100Z,17.40
2022-11-02T13:41:01.804Z,17.30
2022-11-02T13:43:42.467Z,17.30
2022-11-02T13:46:30.427Z,17.50
2022-11-02T13:49:06.088Z,17.60
2022-11-02T13:51:44.959Z,17.80
2022-11-02T13:54:28.024Z,17.90
2022-11-02T13:56:56.743Z,17.90
2022-11-02T13:59:29.933Z,18.00
2022-11-02T14:01:57.373Z,18.00
2022-11-02T14:04:24.646Z,18.10
2022-11-02T14:06:51.340Z,18.10
2022-11-02T14:09:28.568Z,17.90
2022-11-02T14:12:17.050Z,17.90
2022-11-02T14:14:44.934Z,17.90
2022-11-02T14:17:13.468Z,17.70
2022-11-02T14:19:40.150Z,17.80
2022-11-02T14:22:15.605Z,17.90
2022-11-02T14:24:42.301Z,17.80
2022-11-02T14:27:12.241Z,17.80
2022-11-02T14:29:59.282Z,17.70
2022-11-02T14:32:40.959Z,17.60
2022-11-02T14:35:13.653Z,17.70
2022-11-02T14:37:55.483Z,17.60
2022-11-02T14:40:31.433Z,17.50
2022-11-02T14:43:30.290Z,17.50
2022-11-02T14:46:06.520Z,17.50
2022-11-02T14:48:59.391Z,17.50
2022-11-02T14:51:31.720Z,17.60
2022-11-02T14:54:04.876Z,17.50
2022-11-02T14:56:55.003Z,17.50
2022-11-02T14:59:30.673Z,17.40
2022-11-02T15:02:00.815Z,17.30
2022-11-02T15:04:28.055Z,17.40
2022-11-02T15:06:56.996Z,17.40
2022-11-02T15:09:52.422Z,17.40
2022-11-02T15:12:38.947Z,17.40
2022-11-02T15:15:28.128Z,17.20
2022-11-02T15:17:57.865Z,17.20
2022-11-02T15:20:24.566Z,17.40
2022-11-02T15:22:54.788Z,17.40
2022-11-02T15:25:26.523Z,17.20
2022-11-02T15:27:57.286Z,17.10
2022-11-02T15:30:28.269Z,17.00
2022-11-02T15:33:01.720Z,16.90
2022-11-02T15:35:37.408Z,16.80
2022-11-02T15:38:25.975Z,16.70
2022-11-02T15:41:15.277Z,16.80
2022-11-02T15:44:07.031Z,16.70
2022-11-02T15:46:55.454Z,16.70
2022-11-02T15:49:40.862Z,16.60
2022-11-02T15:52:31.955Z,16.50
2022-11-02T15:55:17.693Z,16.50
2022-11-02T15:57:57.470Z,16.40
2022-11-02T16:00:30.216Z,16.30
2022-11-02T16:03:02.845Z,16.20
2022-11-02T16:05:33.460Z,16.20
2022-11-02T16:08:16.663Z,16.20
2022-11-02T16:10:43.384Z,16.20
2022-11-02T16:13:10.169Z,16.00
2022-11-02T16:15:37.475Z,15.90
2022-11-02T16:18:04.727Z,15.80
2022-11-02T16:20:34.833Z,15.80
2022-11-02T16:23:03.869Z,15.80
2022-11-02T16:25:39.999Z,15.80
2022-11-02T16:28:22.574Z,15.70
2022-11-02T16:31:17.912Z,15.60
2022-11-02T16:33:46.921Z,15.60
2022-11-02T16:36:35.788Z,15.50
2022-11-02T16:39:21.249Z,15.50
2022-11-02T16:41:52.544Z,15.40
2022-11-02T16:44:27.898Z,15.30
2022-11-02T16:47:15.539Z,15.30
2022-11-02T16:49:51.238Z,15.30
2022-11-02T16:52:26.115Z,15.20
2022-11-02T16:54:53.010Z,15.20
2022-11-02T16:57:24.120Z,15.10
2022-11-02T16:59:53.002Z,15.10
2022-11-02T17:02:31.393Z,15.00
2022-11-02T17:05:02.430Z,15.00
2022-11-02T17:07:42.151Z,14.90
2022-11-02T17:10:21.358Z,14.80
2022-11-02T17:12:48.560Z,14.80
2022-11-02T17:15:37.434Z,14.70
2022-11-02T17:18:26.123Z,14.70
2022-11-02T17:21:28.924Z,14.70
2022-11-02T17:23:57.798Z,14.70
2022-11-02T17:26:30.686Z,14.60
2022-11-02T17:29:01.346Z,14.50
2022-11-02T17:31:33.973Z,14.50
2022-11-02T17:34:31.591Z,14.50
2022-11-02T17:36:58.413Z,14.40
2022-11-02T17:39:25.476Z,14.40
2022-11-02T17:42:17.126Z,14.40
2022-11-02T17:44:45.643Z,14.30
2022-11-02T17:47:13.922Z,14.20
2022-11-02T17:49:40.730Z,14.20
2022-11-02T17:52:09.106Z,14.10
2022-11-02T17:54:35.841Z,14.10
2022-11-02T17:57:05.779Z,14.10
2022-11-02T17:59:32.510Z,14.00
2022-11-02T18:01:59.359Z,14.00
2022-11-02T18:04:26.158Z,14.00
2022-11-02T18:06:52.878Z,14.00
2022-11-02T18:09:23.876Z,14.00
2022-11-02T18:11:50.578Z,13.90
2022-11-02T18:14:17.379Z,13.90
2022-11-02T18:16:44.668Z,13.80
2022-11-02T18:19:11.749Z,13.70
2022-11-02T18:21:38.558Z,13.80
2022-11-02T18:24:06.649Z,13.70
2022-11-02T18:26:35.535Z,13.70
2022-11-02T18:29:20.946Z,13.60
2022-11-02T18:32:06.452Z,13.60
2022-11-02T18:34:51.973Z,13.60
2022-11-02T18:37:38.325Z,13.50
2022-11-02T18:40:24.063Z,13.50
2022-11-02T18:43:10.010Z,13.50
2022-11-02T18:45:55.602Z,13.50
2022-11-02T18:48:40.957Z,13.40
2022-11-02T18:51:26.462Z,13.30
2022-11-02T18:54:12.297Z,13.40
2022-11-02T18:56:57.465Z,13.30
2022-11-02T18:59:42.681Z,13.30
2022-11-02T19:02:28.853Z,13.30
2022-11-02T19:05:33.056Z,13.20
2022-11-02T19:08:37.392Z,13.20
2022-11-02T19:11:22.812Z,13.20
2022-11-02T19:14:08.624Z,13.20
2022-11-02T19:16:54.300Z,13.10
2022-11-02T19:19:45.390Z,13.10
2022-11-02T19:22:31.046Z,13.10
2022-11-02T19:25:17.111Z,13.10
2022-11-02T19:28:04.669Z,13.00
2022-11-02T19:30:50.113Z,13.10
2022-11-02T19:33:35.964Z,13.10
2022-11-02T19:36:22.372Z,13.00
2022-11-02T19:39:09.280Z,13.00
2022-11-02T19:41:54.691Z,13.00
2022-11-02T19:44:42.745Z,13.00
2022-11-02T19:47:28.294Z,12.90
2022-11-02T19:50:13.952Z,12.90
2022-11-02T19:53:00.115Z,12.90
2022-11-02T19:55:52.721Z,12.90
2022-11-02T19:58:39.456Z,12.90
2022-11-02T20:01:26.286Z,12.90
2022-11-02T20:04:12.100Z,12.90
2022-11-02T20:06:58.623Z,12.80
2022-11-02T20:09:44.966Z,12.80
2022-11-02T20:12:33.514Z,12.80
2022-11-02T20:15:18.800Z,12.80
2022-11-02T20:18:18.785Z,12.80
2022-11-02T20:21:04.651Z,12.80
2022-11-02T20:23:50.836Z,12.70
2022-11-02T20:26:37.394Z,12.70
2022-11-02T20:29:23.044Z,12.70
2022-11-02T20:32:10.390Z,12.70
2022-11-02T20:34:55.764Z,12.70
2022-11-02T20:37:41.369Z,12.70
2022-11-02T20:40:28.833Z,12.70
2022-11-02T20:43:14.405Z,12.70
2022-11-02T20:46:31.373Z,12.60
2022-11-02T20:49:21.210Z,12.60
2022-11-02T20:52:07.993Z,12.70
2022-11-02T20:54:53.097Z,12.60
2022-11-02T20:57:38.343Z,12.60
2022-11-02T21:00:24.698Z,12.60
2022-11-02T21:03:10.227Z,12.60
2022-11-02T21:05:57.291Z,12.60
2022-11-02T21:08:43.464Z,12.60
2022-11-02T21:11:47.460Z,12.60
2022-11-02T21:14:33.005Z,12.60
2022-11-02T21:17:18.568Z,12.60
2022-11-02T21:23:10.493Z,12.50
2022-11-02T21:26:03.024Z,12.50
2022-11-02T21:28:48.383Z,12.50
2022-11-02T21:31:34.197Z,12.50
2022-11-02T21:34:19.658Z,12.50
2022-11-02T21:37:08.054Z,12.50
2022-11-02T21:39:53.207Z,12.50
2022-11-02T21:42:38.933Z,12.50
2022-11-02T21:45:26.263Z,12.50
2022-11-02T21:48:11.920Z,12.50
2022-11-02T21:51:15.197Z,12.50
2022-11-02T21:54:00.945Z,12.50
2022-11-02T21:56:48.315Z,12.50
2022-11-02T21:59:33.603Z,12.40
2022-11-02T22:02:19.213Z,12.50
2022-11-02T22:05:06.148Z,12.40
2022-11-02T22:08:11.734Z,12.40
2022-11-02T22:10:57.631Z,12.40
2022-11-02T22:13:43.765Z,12.40
2022-11-02T22:16:32.119Z,12.40
2022-11-02T22:19:17.326Z,12.40
2022-11-02T22:22:02.471Z,12.40
2022-11-02T22:24:48.232Z,12.40
2022-11-02T22:27:33.814Z,12.40
2022-11-02T22:30:19.536Z,12.40
2022-11-02T22:33:06.072Z,12.40
2022-11-02T22:35:52.242Z,12.40
2022-11-02T22:38:53.923Z,12.40
2022-11-02T22:41:44.462Z,12.40
2022-11-02T22:44:30.094Z,12.40
2022-11-02T22:47:15.897Z,12.40
2022-11-02T22:50:01.400Z,12.40
2022-11-02T22:52:47.033Z,12.40
2022-11-02T22:55:32.787Z,12.40
2022-11-02T22:58:18.311Z,12.40
2022-11-02T23:01:04.565Z,12.40
2022-11-02T23:03:50.240Z,12.40
2022-11-02T23:06:38.506Z,12.40
2022-11-02T23:09:23.865Z,12.40
2022-11-02T23:12:09.156Z,12.40
2022-11-02T23:14:54.316Z,12.40
2022-11-02T23:17:39.531Z,12.30
2022-11-02T23:20:24.930Z,12.30
2022-11-02T23:23:28.922Z,12.30
2022-11-02T23:26:14.258Z,12.40
2022-11-02T23:29:18.304Z,12.30
2022-11-02T23:32:22.880Z,12.30
2022-11-02T23:35:27.522Z,12.30
2022-11-02T23:38:13.036Z,12.30
2022-11-02T23:40:58.174Z,12.30
2022-11-02T23:43:43.541Z,12.30
2022-11-02T23:46:28.876Z,12.30
2022-11-02T23:49:16.702Z,12.30
2022-11-02T23:52:20.756Z,12.30
2022-11-02T23:55:26.919Z,12.30
2022-11-02T23:58:12.196Z,12.30
